Time;durP1;ratioP1;P1;durP2;ratioP2;P2;SDS_P1;SDS_P2;PMS_P1;PMS_P2;Temp;Humidity;BMP_temperature;BMP_pressure;BME280_temperature;BME280_humidity;BME280_pressure;Samples;Min_cycle;Max_cycle;Signal;HPM_P1;HPM_P2
2022/07/23 00:00:50;;;;;;;;;;;;;;;18.07;61.21;99773.84;4934536;29;1891;-62
2022/07/23 00:03:17;;;;;;;;;;;;;;;18.06;61.00;99772.25;4934276;29;795;-63
2022/07/23 00:05:43;;;;;;;;;;;;;;;18.08;60.91;99780.19;4934266;29;883;-63
2022/07/23 00:08:09;;;;;;;;;;;;;;;18.17;60.31;99766.28;4934181;29;804;-62
2022/07/23 00:10:36;;;;;;;;;;;;;;;18.27;59.62;99770.69;4934520;29;824;-63
2022/07/23 00:13:03;;;;;;;;;;;;;;;18.45;58.65;99772.81;4934142;29;803;-63
2022/07/23 00:15:29;;;;;;;;;;;;;;;18.60;57.90;99766.69;4934171;29;922;-63
2022/07/23 00:17:56;;;;;;;;;;;;;;;18.49;58.20;99767.88;4934207;29;811;-63
2022/07/23 00:20:21;;;;;;;;;;;;;;;18.23;59.20;99763.69;4933916;29;1890;-62
2022/07/23 00:22:48;;;;;;;;;;;;;;;17.96;60.20;99767.81;4934155;29;863;-63
2022/07/23 00:25:14;;;;;;;;;;;;;;;17.66;61.46;99760.88;4934088;29;886;-63
2022/07/23 00:27:41;;;;;;;;;;;;;;;17.40;62.61;99763.75;4934070;29;797;-63
2022/07/23 00:30:08;;;;;;;;;;;;;;;17.24;63.31;99750.72;4934070;29;846;-63
2022/07/23 00:32:56;;;;;;;;;;;;;;;17.02;64.06;99755.41;4934154;29;931;-63
2022/07/23 00:35:24;;;;;;;;;;;;;;;16.83;65.21;99760.78;4934050;29;1204;-63
2022/07/23 00:37:50;;;;;;;;;;;;;;;16.84;65.44;99761.56;4916867;29;1321;-63
2022/07/23 00:40:17;;;;;;;;;;;;;;;17.00;65.21;99763.47;4933942;29;1981;-63
2022/07/23 00:42:44;;;;;;;;;;;;;;;17.12;65.22;99759.88;4933909;29;831;-63
2022/07/23 00:45:11;;;;;;;;;;;;;;;17.20;65.09;99761.22;4933941;29;880;-63
2022/07/23 00:47:38;;;;;;;;;;;;;;;17.30;64.71;99767.66;4934036;29;859;-62
2022/07/23 00:50:06;;;;;;;;;;;;;;;17.39;64.33;99759.41;4933812;29;832;-63
2022/07/23 00:52:32;;;;;;;;;;;;;;;17.44;64.11;99753.22;4933868;29;812;-63
2022/07/23 00:54:59;;;;;;;;;;;;;;;17.51;63.48;99763.38;4933809;29;793;-63
2022/07/23 00:57:27;;;;;;;;;;;;;;;17.60;63.30;99769.03;4933780;29;793;-63
2022/07/23 00:59:53;;;;;;;;;;;;;;;17.65;63.14;99765.69;4933765;29;880;-63
2022/07/23 01:02:20;;;;;;;;;;;;;;;17.72;62.77;99761.88;4916608;29;1974;-63
2022/07/23 01:04:46;;;;;;;;;;;;;;;17.79;62.60;99763.63;4933770;29;872;-63
2022/07/23 01:07:13;;;;;;;;;;;;;;;17.88;62.04;99763.72;4935656;29;812;-63
2022/07/23 01:09:40;;;;;;;;;;;;;;;17.87;62.06;99760.16;4937100;29;832;-63
2022/07/23 01:12:07;;;;;;;;;;;;;;;17.83;62.41;99758.72;4937112;29;876;-62
2022/07/23 01:14:32;;;;;;;;;;;;;;;17.82;62.36;99765.53;4936933;29;894;-63
2022/07/23 01:17:02;;;;;;;;;;;;;;;17.80;62.37;99771.56;4937250;29;864;-63
2022/07/23 01:19:30;;;;;;;;;;;;;;;17.76;62.90;99768.13;4937102;29;788;-64
2022/07/23 01:21:58;;;;;;;;;;;;;;;17.70;62.60;99756.72;4936791;29;1955;-63
2022/07/23 01:24:24;;;;;;;;;;;;;;;17.64;63.11;99764.13;4919709;29;1195;-63
2022/07/23 01:26:51;;;;;;;;;;;;;;;17.59;63.39;99767.50;4936805;29;836;-63
2022/07/23 01:29:19;;;;;;;;;;;;;;;17.51;63.59;99757.78;4919610;29;1175;-63
2022/07/23 01:31:45;;;;;;;;;;;;;;;17.45;64.15;99756.78;4936752;29;815;-63
2022/07/23 01:34:12;;;;;;;;;;;;;;;17.39;64.52;99764.19;4936583;29;1153;-63
2022/07/23 01:36:38;;;;;;;;;;;;;;;17.31;64.88;99758.06;4936604;29;854;-63
2022/07/23 01:39:06;;;;;;;;;;;;;;;17.26;65.15;99753.84;4936556;29;855;-63
2022/07/23 01:41:33;;;;;;;;;;;;;;;17.22;65.41;99746.78;4936483;29;1982;-63
2022/07/23 01:43:59;;;;;;;;;;;;;;;17.12;65.65;99751.50;4936421;29;899;-63
2022/07/23 01:46:26;;;;;;;;;;;;;;;17.05;66.33;99755.31;4936530;29;828;-63
2022/07/23 01:48:53;;;;;;;;;;;;;;;17.08;66.41;99751.59;4936351;29;836;-63
2022/07/23 01:51:19;;;;;;;;;;;;;;;17.11;66.32;99744.34;4936289;29;856;-63
2022/07/23 01:53:46;;;;;;;;;;;;;;;17.12;66.30;99743.13;4936313;29;863;-63
2022/07/23 01:56:14;;;;;;;;;;;;;;;17.08;66.26;99740.44;4936280;29;804;-63
2022/07/23 01:58:41;;;;;;;;;;;;;;;17.03;66.64;99741.00;4936186;29;864;-63
2022/07/23 02:01:08;;;;;;;;;;;;;;;17.02;66.54;99739.44;4936134;29;2034;-63
2022/07/23 02:03:35;;;;;;;;;;;;;;;17.02;66.69;99741.47;4936258;29;843;-63
2022/07/23 02:06:01;;;;;;;;;;;;;;;16.97;66.72;99731.63;4936029;29;824;-63
2022/07/23 02:08:28;;;;;;;;;;;;;;;16.91;67.17;99733.44;4936076;29;839;-63
2022/07/23 02:10:54;;;;;;;;;;;;;;;16.88;67.43;99737.91;4936242;29;819;-63
2022/07/23 02:13:21;;;;;;;;;;;;;;;16.84;67.58;99736.47;4932497;29;1410;-63
2022/07/23 02:15:49;;;;;;;;;;;;;;;16.82;67.78;99738.91;4935908;29;859;-63
2022/07/23 02:18:15;;;;;;;;;;;;;;;16.81;67.79;99737.34;4935466;29;859;-63
2022/07/23 02:20:42;;;;;;;;;;;;;;;16.78;68.02;99738.97;4933532;29;1894;-63
2022/07/23 02:23:09;;;;;;;;;;;;;;;16.74;68.10;99747.47;4935771;29;808;-63
2022/07/23 02:25:35;;;;;;;;;;;;;;;16.74;68.31;99744.66;4935724;29;880;-63
2022/07/23 02:28:02;;;;;;;;;;;;;;;16.77;68.28;99748.59;4935658;29;840;-63
2022/07/23 02:30:28;;;;;;;;;;;;;;;16.86;67.93;99742.38;4935679;29;808;-63
2022/07/23 02:32:55;;;;;;;;;;;;;;;16.95;67.31;99742.47;4935726;29;915;-63
2022/07/23 02:35:22;;;;;;;;;;;;;;;17.00;67.09;99749.50;4935423;29;1433;-63
2022/07/23 02:37:48;;;;;;;;;;;;;;;17.01;67.09;99757.44;4918381;29;1190;-63
2022/07/23 02:40:15;;;;;;;;;;;;;;;17.02;66.89;99758.22;4935357;29;1978;-63
2022/07/23 02:42:42;;;;;;;;;;;;;;;17.04;66.76;99761.34;4935408;29;920;-63
2022/07/23 02:45:08;;;;;;;;;;;;;;;17.06;66.86;99756.84;4935325;29;848;-63
2022/07/23 02:47:35;;;;;;;;;;;;;;;17.09;66.59;99760.75;4935227;29;868;-63
2022/07/23 02:50:05;;;;;;;;;;;;;;;17.10;66.49;99753.97;4935322;29;899;-63
2022/07/23 02:52:31;;;;;;;;;;;;;;;17.14;66.46;99751.84;4935156;29;918;-63
2022/07/23 02:54:57;;;;;;;;;;;;;;;17.16;66.53;99757.75;4935219;29;807;-63
2022/07/23 02:57:23;;;;;;;;;;;;;;;17.15;66.59;99750.59;4935085;29;903;-63
2022/07/23 02:59:50;;;;;;;;;;;;;;;17.14;66.49;99760.22;4918047;29;1304;-63
2022/07/23 03:02:27;;;;;;;;;;;;;;;17.10;66.88;99754.72;4934989;29;1953;-63
2022/07/23 03:04:54;;;;;;;;;;;;;;;17.11;66.94;99761.09;4935038;29;796;-63
2022/07/23 03:07:20;;;;;;;;;;;;;;;17.11;66.96;99761.91;4934947;29;808;-63
2022/07/23 03:09:47;;;;;;;;;;;;;;;17.13;66.98;99767.00;4934945;29;784;-63
2022/07/23 03:12:13;;;;;;;;;;;;;;;17.14;66.98;99763.00;4934830;29;887;-63
2022/07/23 03:14:41;;;;;;;;;;;;;;;17.14;66.80;99769.38;4934871;29;808;-63
2022/07/23 03:17:08;;;;;;;;;;;;;;;17.16;66.94;99771.72;4934776;29;851;-63
2022/07/23 03:19:34;;;;;;;;;;;;;;;17.16;66.86;99771.72;4934723;29;844;-63
2022/07/23 03:22:01;;;;;;;;;;;;;;;17.17;66.96;99770.47;4934786;29;1950;-63
2022/07/23 03:24:53;;;;;;;;;;;;;;;17.22;66.91;99775.50;4934645;29;882;-63
2022/07/23 03:27:14;;;;;;;;;;;;;;;17.29;66.85;99778.06;4934501;29;1196;-63
2022/07/23 03:29:40;;;;;;;;;;;;;;;17.41;66.65;99775.69;4933999;29;841;-63
2022/07/23 03:32:08;;;;;;;;;;;;;;;17.47;66.56;99771.09;4917590;29;1230;-63
2022/07/23 03:34:34;;;;;;;;;;;;;;;17.56;66.15;99782.38;4934427;29;1241;-63
2022/07/23 03:37:00;;;;;;;;;;;;;;;17.65;65.23;99774.06;4934505;29;808;-65
2022/07/23 03:39:27;;;;;;;;;;;;;;;17.68;64.89;99770.38;4934550;29;987;-63
2022/07/23 03:41:54;;;;;;;;;;;;;;;17.66;64.94;99770.03;4934422;29;1911;-63
2022/07/23 03:44:20;;;;;;;;;;;;;;;17.65;65.29;99778.88;4934754;29;840;-63
2022/07/23 03:46:47;;;;;;;;;;;;;;;17.62;65.46;99777.75;4934400;29;914;-62
2022/07/23 03:49:14;;;;;;;;;;;;;;;17.62;65.62;99776.97;4934391;29;873;-63
2022/07/23 03:51:40;;;;;;;;;;;;;;;17.62;65.56;99780.56;4934541;29;835;-63
2022/07/23 03:54:07;;;;;;;;;;;;;;;17.62;65.74;99777.75;4934306;29;907;-62
2022/07/23 03:56:34;;;;;;;;;;;;;;;17.66;65.95;99774.84;4934388;29;895;-63
2022/07/23 03:59:01;;;;;;;;;;;;;;;17.71;65.87;99765.91;4934364;29;856;-63
2022/07/23 04:01:28;;;;;;;;;;;;;;;17.81;65.85;99770.31;4917147;29;1942;-63
2022/07/23 04:03:54;;;;;;;;;;;;;;;17.91;65.56;99772.00;4934287;29;855;-63
2022/07/23 04:06:21;;;;;;;;;;;;;;;18.00;65.62;99767.72;4934278;29;832;-63
2022/07/23 04:08:48;;;;;;;;;;;;;;;18.09;65.43;99764.97;4934193;29;843;-63
2022/07/23 04:11:14;;;;;;;;;;;;;;;18.20;65.26;99773.78;4917221;29;1316;-62
2022/07/23 04:13:40;;;;;;;;;;;;;;;18.32;65.26;99767.31;4934187;29;879;-62
2022/07/23 04:16:07;;;;;;;;;;;;;;;18.46;65.17;99766.00;4917055;29;880;-63
2022/07/23 04:18:34;;;;;;;;;;;;;;;18.58;65.13;99772.75;4934271;29;800;-63
2022/07/23 04:21:00;;;;;;;;;;;;;;;18.69;64.90;99772.31;4934100;29;1890;-62
2022/07/23 04:23:27;;;;;;;;;;;;;;;18.82;64.79;99775.84;4934079;29;792;-62
2022/07/23 04:25:53;;;;;;;;;;;;;;;18.95;64.62;99767.34;4934166;29;863;-62
2022/07/23 04:28:20;;;;;;;;;;;;;;;19.12;64.20;99773.47;4934073;29;801;-63
2022/07/23 04:30:47;;;;;;;;;;;;;;;19.33;63.73;99774.59;4934088;29;824;-62
2022/07/23 04:33:13;;;;;;;;;;;;;;;19.52;63.14;99769.81;4934026;29;1416;-63
2022/07/23 04:35:40;;;;;;;;;;;;;;;19.62;63.03;99771.38;4934052;29;895;-62
2022/07/23 04:38:07;;;;;;;;;;;;;;;19.75;62.80;99772.03;4934391;29;843;-62
2022/07/23 04:40:33;;;;;;;;;;;;;;;19.93;62.41;99781.72;4935027;29;1919;-62
2022/07/23 04:43:00;;;;;;;;;;;;;;;20.08;61.96;99771.44;4937764;29;863;-62
2022/07/23 04:45:27;;;;;;;;;;;;;;;20.22;61.46;99770.00;4937789;29;781;-62
2022/07/23 04:47:54;;;;;;;;;;;;;;;20.37;60.84;99775.75;4937684;29;887;-62
2022/07/23 04:50:21;;;;;;;;;;;;;;;20.51;60.49;99774.31;4937796;29;816;-62
2022/07/23 04:52:48;;;;;;;;;;;;;;;20.69;60.07;99776.31;4920407;29;1345;-62
2022/07/23 04:55:15;;;;;;;;;;;;;;;20.86;59.58;99771.88;4936291;29;887;-62
2022/07/23 04:57:42;;;;;;;;;;;;;;;21.11;58.64;99773.50;4937482;29;831;-62
2022/07/23 05:00:09;;;;;;;;;;;;;;;21.34;57.92;99779.63;4937491;29;874;-62
2022/07/23 05:02:35;;;;;;;;;;;;;;;21.52;57.14;99773.91;4937415;29;1974;-62
2022/07/23 05:05:02;;;;;;;;;;;;;;;21.70;56.33;99775.03;4937765;29;844;-62
2022/07/23 05:07:29;;;;;;;;;;;;;;;21.89;55.88;99773.66;4937352;29;875;-62
2022/07/23 05:09:55;;;;;;;;;;;;;;;22.06;55.54;99767.53;4937590;29;828;-62
2022/07/23 05:12:21;;;;;;;;;;;;;;;22.24;55.26;99773.03;4937152;29;843;-62
2022/07/23 05:14:48;;;;;;;;;;;;;;;22.48;55.32;99775.75;4937206;29;823;-61
2022/07/23 05:17:15;;;;;;;;;;;;;;;22.71;55.23;99774.09;4937026;29;859;-62
2022/07/23 05:19:42;;;;;;;;;;;;;;;22.95;54.95;99781.63;4936900;29;882;-62
2022/07/23 05:22:08;;;;;;;;;;;;;;;23.10;54.28;99773.19;4936893;29;1954;-61
2022/07/23 05:24:34;;;;;;;;;;;;;;;23.18;53.64;99779.97;4936795;29;911;-61
2022/07/23 05:27:00;;;;;;;;;;;;;;;23.27;52.90;99771.38;4937071;29;816;-61
2022/07/23 05:29:26;;;;;;;;;;;;;;;23.41;52.74;99773.38;4936734;29;831;-61
2022/07/23 05:31:53;;;;;;;;;;;;;;;23.56;52.42;99772.53;4936678;29;1121;-62
2022/07/23 05:34:20;;;;;;;;;;;;;;;23.72;52.07;99771.94;4936544;29;1203;-61
2022/07/23 05:36:48;;;;;;;;;;;;;;;23.97;51.99;99776.13;4936589;29;887;-62
2022/07/23 05:39:15;;;;;;;;;;;;;;;24.28;51.05;99774.63;4935319;29;1332;-61
2022/07/23 05:41:42;;;;;;;;;;;;;;;24.60;50.35;99780.34;4936501;29;1978;-61
2022/07/23 05:44:08;;;;;;;;;;;;;;;24.96;49.30;99783.72;4936356;29;860;-61
2022/07/23 05:46:44;;;;;;;;;;;;;;;25.42;48.35;99783.53;4936537;29;871;-61
2022/07/23 05:49:10;;;;;;;;;;;;;;;25.91;47.54;99780.69;4936294;29;870;-61
2022/07/23 05:51:51;;;;;;;;;;;;;;;26.60;46.43;99773.88;4936354;29;851;-61
2022/07/23 05:54:17;;;;;;;;;;;;;;;27.47;43.77;99777.63;4936428;29;884;-61
2022/07/23 05:56:50;;;;;;;;;;;;;;;28.43;41.95;99774.31;4935817;29;887;-61
2022/07/23 05:59:17;;;;;;;;;;;;;;;29.48;39.45;99778.81;4936495;29;852;-61
2022/07/23 06:04:57;;;;;;;;;;;;;;;31.09;35.51;99773.34;4932048;29;1207;-61
2022/07/23 06:07:24;;;;;;;;;;;;;;;31.54;35.13;99775.38;4918934;29;1343;-61
2022/07/23 06:09:52;;;;;;;;;;;;;;;32.24;34.29;99776.22;4936093;29;812;-61
2022/07/23 06:12:22;;;;;;;;;;;;;;;32.49;32.24;99780.28;4918767;29;1432;-62
2022/07/23 06:14:49;;;;;;;;;;;;;;;32.59;32.17;99777.75;4935978;29;874;-62
2022/07/23 06:17:17;;;;;;;;;;;;;;;32.88;31.50;99781.44;4935963;29;863;-61
2022/07/23 06:19:47;;;;;;;;;;;;;;;33.15;31.50;99779.16;4935825;29;864;-61
2022/07/23 06:22:14;;;;;;;;;;;;;;;33.61;31.19;99780.78;4935899;29;1891;-61
2022/07/23 06:37:05;;;;;;;;;;;;;;;34.85;29.34;99774.09;4936212;29;638;-61
2022/07/23 06:39:32;;;;;;;;;;;;;;;35.74;28.51;99766.47;4935781;29;840;-61
2022/07/23 06:42:00;;;;;;;;;;;;;;;36.44;27.86;99769.75;4934237;29;1970;-61
2022/07/23 06:44:42;;;;;;;;;;;;;;;37.07;27.45;99760.81;4935565;29;851;-61
2022/07/23 06:47:14;;;;;;;;;;;;;;;37.54;26.31;99773.41;4918001;29;1407;-61
2022/07/23 06:49:58;;;;;;;;;;;;;;;37.66;26.32;99764.25;4935633;29;915;-61
2022/07/23 06:52:39;;;;;;;;;;;;;;;37.92;25.35;99765.66;4935256;29;844;-61
2022/07/23 06:55:05;;;;;;;;;;;;;;;37.97;25.69;99762.50;4934931;29;832;-61
2022/07/23 06:57:35;;;;;;;;;;;;;;;38.31;25.67;99763.78;4934919;29;820;-61
2022/07/23 07:00:02;;;;;;;;;;;;;;;38.51;24.96;99763.88;4935306;29;927;-61
2022/07/23 07:02:28;;;;;;;;;;;;;;;38.85;25.12;99762.16;4935012;29;1966;-61
2022/07/23 07:05:14;;;;;;;;;;;;;;;39.17;24.48;99763.94;4934144;29;937;-61
2022/07/23 07:07:41;;;;;;;;;;;;;;;39.09;23.96;99760.41;4935000;29;816;-61
2022/07/23 07:10:08;;;;;;;;;;;;;;;39.02;24.33;99761.31;4934918;29;859;-61
2022/07/23 07:12:38;;;;;;;;;;;;;;;38.97;24.42;99758.13;4934816;29;791;-62
2022/07/23 07:15:07;;;;;;;;;;;;;;;39.30;24.17;99765.59;4934928;29;887;-61
2022/07/23 07:17:36;;;;;;;;;;;;;;;39.54;24.35;99761.69;4934866;29;835;-62
2022/07/23 07:20:13;;;;;;;;;;;;;;;39.61;24.25;99755.00;4934845;29;897;-62
2022/07/23 07:22:40;;;;;;;;;;;;;;;39.87;23.20;99761.22;4934712;29;1882;-62
2022/07/23 07:25:13;;;;;;;;;;;;;;;40.00;23.30;99757.84;4934763;29;898;-62
2022/07/23 07:27:39;;;;;;;;;;;;;;;40.16;21.90;99755.38;4934552;29;813;-61
2022/07/23 07:30:06;;;;;;;;;;;;;;;40.16;21.96;99761.16;4917616;29;1174;-62
2022/07/23 07:32:32;;;;;;;;;;;;;;;40.50;21.51;99755.56;4934680;29;1047;-62
2022/07/23 07:47:09;;;;;;;;;;;;;;;42.15;19.47;99750.69;4934791;29;607;-62
2022/07/23 07:49:57;;;;;;;;;;;;;;;42.34;19.09;99746.78;4934454;29;863;-62
2022/07/23 07:52:23;;;;;;;;;;;;;;;42.28;19.50;99750.06;4933235;29;1187;-62
2022/07/23 07:54:51;;;;;;;;;;;;;;;42.16;18.66;99752.19;4934467;29;838;-62
2022/07/23 07:57:18;;;;;;;;;;;;;;;41.81;19.32;99749.97;4933182;29;899;-62
2022/07/23 07:59:45;;;;;;;;;;;;;;;41.98;19.74;99749.63;4934479;29;805;-63
2022/07/23 08:02:24;;;;;;;;;;;;;;;41.85;19.31;99743.66;4934275;29;1891;-62
2022/07/23 08:04:50;;;;;;;;;;;;;;;41.78;19.43;99740.38;4934314;29;800;-62
2022/07/23 08:07:18;;;;;;;;;;;;;;;41.52;18.96;99741.50;4934410;29;835;-62
2022/07/23 08:09:45;;;;;;;;;;;;;;;40.89;18.94;99738.75;4934216;29;819;-62
2022/07/23 08:12:12;;;;;;;;;;;;;;;41.10;19.31;99743.81;4934081;29;879;-61
2022/07/23 08:14:38;;;;;;;;;;;;;;;41.50;18.84;99739.22;4934297;29;812;-62
2022/07/23 08:17:05;;;;;;;;;;;;;;;41.81;19.38;99736.19;4937741;29;1021;-61
2022/07/23 08:19:31;;;;;;;;;;;;;;;41.67;18.85;99741.06;4938092;29;816;-62
2022/07/23 08:22:00;;;;;;;;;;;;;;;41.42;18.06;99732.91;4937917;29;1886;-62
2022/07/23 08:24:28;;;;;;;;;;;;;;;41.72;18.10;99736.31;4938004;29;823;-62
2022/07/23 08:26:55;;;;;;;;;;;;;;;41.89;17.89;99735.97;4938179;29;824;-62
2022/07/23 08:29:21;;;;;;;;;;;;;;;41.88;18.00;99725.75;4937924;29;835;-62
2022/07/23 08:31:48;;;;;;;;;;;;;;;41.92;17.32;99731.81;4937959;29;838;-62
2022/07/23 08:34:15;;;;;;;;;;;;;;;41.94;18.26;99729.03;4937513;29;1169;-62
2022/07/23 08:36:40;;;;;;;;;;;;;;;42.03;18.12;99730.34;4937444;29;809;-61
2022/07/23 08:39:07;;;;;;;;;;;;;;;41.66;18.33;99733.78;4937974;29;939;-62
2022/07/23 08:41:34;;;;;;;;;;;;;;;41.33;18.11;99733.72;4937581;29;1914;-62
2022/07/23 08:44:00;;;;;;;;;;;;;;;41.60;18.27;99736.25;4937611;29;808;-62
2022/07/23 08:46:27;;;;;;;;;;;;;;;41.81;17.42;99735.44;4937708;29;824;-62
2022/07/23 08:48:55;;;;;;;;;;;;;;;41.19;17.91;99734.31;4937493;29;929;-62
2022/07/23 08:51:25;;;;;;;;;;;;;;;41.02;19.00;99738.22;4937653;29;879;-63
2022/07/23 08:53:52;;;;;;;;;;;;;;;40.91;18.57;99747.59;4937503;29;816;-63
2022/07/23 08:56:19;;;;;;;;;;;;;;;40.54;18.79;99747.94;4937401;29;851;-62
2022/07/23 08:58:46;;;;;;;;;;;;;;;40.46;18.85;99746.59;4937375;29;831;-62
2022/07/23 09:01:14;;;;;;;;;;;;;;;40.60;18.50;99742.53;4937221;29;1887;-62
2022/07/23 09:03:44;;;;;;;;;;;;;;;40.76;18.57;99745.84;4937496;29;867;-62
2022/07/23 09:06:11;;;;;;;;;;;;;;;40.08;18.98;99742.44;4937549;29;805;-63
2022/07/23 09:08:41;;;;;;;;;;;;;;;39.12;19.61;99742.63;4920315;29;1441;-63
2022/07/23 09:11:09;;;;;;;;;;;;;;;38.99;20.35;99743.84;4937009;29;869;-62
2022/07/23 09:13:46;;;;;;;;;;;;;;;39.35;20.15;99744.34;4937113;29;808;-63
2022/07/23 09:16:14;;;;;;;;;;;;;;;39.02;19.86;99738.97;4937086;29;812;-62
2022/07/23 09:18:43;;;;;;;;;;;;;;;38.76;20.50;99737.69;4936937;29;790;-62
2022/07/23 09:21:10;;;;;;;;;;;;;;;39.17;21.19;99738.69;4936919;29;1936;-63
2022/07/23 09:23:41;;;;;;;;;;;;;;;39.45;21.10;99736.44;4936941;29;872;-62
2022/07/23 09:26:26;;;;;;;;;;;;;;;39.27;19.95;99726.38;4935789;29;1206;-62
2022/07/23 09:28:57;;;;;;;;;;;;;;;38.63;19.83;99726.56;4919197;29;1171;-61
2022/07/23 09:31:25;;;;;;;;;;;;;;;38.30;20.84;99733.41;4937000;29;843;-61
2022/07/23 09:34:06;;;;;;;;;;;;;;;38.39;21.14;99729.78;4937067;29;915;-62
2022/07/23 09:36:32;;;;;;;;;;;;;;;38.93;21.19;99728.13;4936947;29;812;-62
2022/07/23 09:38:59;;;;;;;;;;;;;;;38.91;21.13;99725.84;4936830;29;804;-62
2022/07/23 09:41:33;;;;;;;;;;;;;;;38.79;21.13;99719.13;4936480;29;2002;-62
2022/07/23 09:44:06;;;;;;;;;;;;;;;38.84;21.64;99726.00;4936699;29;792;-62
2022/07/23 09:46:32;;;;;;;;;;;;;;;38.70;21.43;99714.84;4936508;29;816;-62
2022/07/23 09:49:09;;;;;;;;;;;;;;;38.38;22.00;99721.72;4936650;29;875;-62
2022/07/23 09:51:56;;;;;;;;;;;;;;;38.24;22.47;99712.72;4936363;29;828;-63
2022/07/23 09:54:29;;;;;;;;;;;;;;;38.22;22.78;99709.66;4936231;29;1281;-62
2022/07/23 09:56:56;;;;;;;;;;;;;;;38.20;22.16;99701.59;4936588;29;871;-62
2022/07/23 09:59:26;;;;;;;;;;;;;;;37.87;22.57;99695.34;4936464;29;816;-62
2022/07/23 10:01:54;;;;;;;;;;;;;;;37.59;22.91;99690.91;4936125;29;1954;-62
2022/07/23 10:35:26;;;;;;;;;;;;;;;37.81;22.60;99680.41;4990276;28;1309;-67
2022/07/23 10:38:16;;;;;;;;;;;;;;;37.68;23.63;99675.03;4993237;28;932;-69
2022/07/23 10:41:10;;;;;;;;;;;;;;;37.80;22.74;99678.91;4985299;28;1914;-68
2022/07/23 10:43:36;;;;;;;;;;;;;;;37.79;22.11;99669.50;4990895;28;1162;-69
2022/07/23 10:46:27;;;;;;;;;;;;;;;37.64;22.88;99668.94;4993288;28;830;-68
2022/07/23 10:49:14;;;;;;;;;;;;;;;37.55;22.36;99671.13;4993117;28;1078;-67
2022/07/23 10:52:00;;;;;;;;;;;;;;;37.93;22.52;99666.22;4994199;28;759;-70
2022/07/23 10:54:31;;;;;;;;;;;;;;;38.43;22.47;99667.97;4993174;28;1024;-67
2022/07/23 10:56:58;;;;;;;;;;;;;;;38.20;21.93;99669.88;4993120;28;839;-68
2022/07/23 10:59:25;;;;;;;;;;;;;;;38.07;21.87;99675.25;4993041;28;901;-68
2022/07/23 11:01:51;;;;;;;;;;;;;;;38.11;21.15;99669.81;4992971;28;1985;-67
2022/07/23 11:04:47;;;;;;;;;;;;;;;38.32;21.50;99667.16;4993043;28;850;-69
2022/07/23 11:07:25;;;;;;;;;;;;;;;38.56;20.77;99662.56;4992538;28;1015;-68
2022/07/23 11:09:53;;;;;;;;;;;;;;;38.76;20.29;99660.47;4993310;28;858;-69
2022/07/23 11:15:22;;;;;;;;;;;;;;;39.26;20.45;99649.69;4992858;28;672;-71
2022/07/23 11:20:53;;;;;;;;;;;;;;;39.76;19.89;99643.25;4992633;28;1979;-70
2022/07/23 11:23:23;;;;;;;;;;;;;;;39.92;19.82;99635.72;4975177;28;1309;-69
2022/07/23 11:25:51;;;;;;;;;;;;;;;40.07;19.44;99634.59;4992564;28;877;-69
2022/07/23 11:28:26;;;;;;;;;;;;;;;39.91;18.74;99633.47;4992701;28;890;-68
2022/07/23 11:31:05;;;;;;;;;;;;;;;39.48;19.12;99636.94;4975320;28;1289;-71
2022/07/23 11:39:54;;;;;;;;;;;;;;;39.94;18.83;99623.56;4973065;28;696;-71
2022/07/23 11:42:21;;;;;;;;;;;;;;;40.63;18.84;99621.84;4973175;28;1914;-69
2022/07/23 11:45:18;;;;;;;;;;;;;;;;;;;;;
2022/07/23 11:48:16;;;;;;;;;;;;;;;40.80;19.59;99630.25;4965181;28;1376;-70
2022/07/23 11:50:42;;;;;;;;;;;;;;;40.17;19.13;99629.53;4972414;28;878;-71
2022/07/23 11:53:08;;;;;;;;;;;;;;;39.86;19.64;99628.75;4955504;28;1301;-71
2022/07/23 11:55:35;;;;;;;;;;;;;;;40.56;19.18;99625.69;4972878;28;847;-71
2022/07/23 11:58:13;;;;;;;;;;;;;;;41.19;19.39;99632.84;4972776;28;804;-72
2022/07/23 12:00:41;;;;;;;;;;;;;;;41.71;19.29;99636.91;4972733;28;1954;-72
2022/07/23 12:03:07;;;;;;;;;;;;;;;41.75;18.14;99619.00;4955347;28;1224;-71
2022/07/23 12:05:36;;;;;;;;;;;;;;;42.05;18.54;99628.13;4972764;28;870;-69
2022/07/23 12:08:04;;;;;;;;;;;;;;;42.23;18.27;99620.56;4972721;28;796;-68
2022/07/23 12:10:35;;;;;;;;;;;;;;;41.63;17.77;99624.78;4972747;28;861;-71
2022/07/23 12:13:06;;;;;;;;;;;;;;;41.08;18.73;99619.06;4972747;28;870;-71
2022/07/23 12:15:34;;;;;;;;;;;;;;;41.31;19.10;99615.50;4972887;28;843;-71
2022/07/23 12:18:18;;;;;;;;;;;;;;;41.11;18.90;99619.94;4972637;28;847;-72
2022/07/23 12:21:02;;;;;;;;;;;;;;;41.14;19.14;99621.56;4972557;28;1878;-70
2022/07/23 12:23:29;;;;;;;;;;;;;;;40.93;18.78;99607.91;4972656;28;823;-73
2022/07/23 12:26:00;;;;;;;;;;;;;;;40.98;18.78;99607.53;4955416;28;1199;-72
2022/07/23 12:28:37;;;;;;;;;;;;;;;41.37;18.46;99620.94;4972538;28;910;-75
2022/07/23 12:31:04;;;;;;;;;;;;;;;41.45;18.44;99614.91;4955508;28;1190;-70
2022/07/23 12:33:40;;;;;;;;;;;;;;;41.20;18.69;99619.88;4972529;28;1012;-70
2022/07/23 12:36:09;;;;;;;;;;;;;;;40.98;18.36;99612.56;4972404;28;1243;-72
2022/07/23 12:38:41;;;;;;;;;;;;;;;41.50;18.40;99616.66;4984094;28;1247;-71
2022/07/23 12:41:11;;;;;;;;;;;;;;;41.40;18.40;99608.84;4974659;28;1902;-70
2022/07/23 12:43:39;;;;;;;;;;;;;;;41.39;18.59;99609.47;4991806;28;818;-72
2022/07/23 12:49:27;;;;;;;;;;;;;;;41.09;18.58;99614.75;4902803;29;1294;-71
2022/07/23 12:51:58;;;;;;;;;;;;;;;41.08;19.04;99612.47;4931809;29;986;-71
2022/07/23 12:54:27;;;;;;;;;;;;;;;41.13;18.89;99612.13;4931762;29;990;-73
2022/07/23 12:57:02;;;;;;;;;;;;;;;40.95;18.71;99611.69;4932091;29;843;-71
2022/07/23 12:59:30;;;;;;;;;;;;;;;40.35;19.15;99609.03;4931715;29;974;-73
2022/07/23 13:05:20;;;;;;;;;;;;;;;40.12;19.42;99606.75;4927231;29;1596;-68
2022/07/23 13:19:57;;;;;;;;;;;;;;;40.53;18.87;99621.13;4934916;29;1140;-70
2022/07/23 13:22:27;;;;;;;;;;;;;;;40.87;19.06;99619.09;4935080;29;1972;-72
2022/07/23 13:24:54;;;;;;;;;;;;;;;41.15;18.62;99618.09;4934973;29;938;-70
2022/07/23 13:33:30;;;;;;;;;;;;;;;39.59;19.04;99618.94;4934609;29;1190;-70
2022/07/23 13:39:23;;;;;;;;;;;;;;;39.52;19.48;99619.09;4931511;29;1185;-72
2022/07/23 13:41:50;;;;;;;;;;;;;;;40.05;19.79;99614.22;4915482;29;1903;-70
2022/07/23 13:44:18;;;;;;;;;;;;;;;39.95;19.09;99622.94;4915739;29;844;-71
2022/07/23 13:52:54;;;;;;;;;;;;;;;38.99;19.93;99624.63;4913704;29;952;-71
2022/07/23 13:55:37;;;;;;;;;;;;;;;38.62;20.08;99621.06;4915409;29;914;-72
2022/07/23 13:58:04;;;;;;;;;;;;;;;38.55;20.51;99614.84;4915400;29;792;-73
2022/07/23 14:00:32;;;;;;;;;;;;;;;38.60;20.59;99613.00;4915253;29;1046;-70
2022/07/23 14:03:03;;;;;;;;;;;;;;;38.52;20.71;99615.31;4915358;29;1923;-75
2022/07/23 14:05:32;;;;;;;;;;;;;;;38.39;20.39;99617.22;4915173;29;867;-72
2022/07/23 14:07:59;;;;;;;;;;;;;;;38.62;20.46;99612.41;4957270;28;1019;-71
2022/07/23 14:28:59;;;;;;;;;;;;;;;36.92;22.65;99616.97;4877463;29;1043;-73
2022/07/23 14:46:44;;;;;;;;;;;;;;;34.75;25.10;99625.41;4890448;29;1188;-71
2022/07/23 14:49:10;;;;;;;;;;;;;;;34.51;26.20;99623.88;4933626;28;949;-73
2022/07/23 15:00:36;;;;;;;;;;;;;;;34.06;27.03;99631.16;4993137;28;1167;-72
2022/07/23 15:03:14;;;;;;;;;;;;;;;33.99;27.07;99629.00;4993169;28;2016;-71
2022/07/23 15:05:51;;;;;;;;;;;;;;;33.86;27.33;99627.09;4992984;28;862;-77
2022/07/23 15:12:15;;;;;;;;;;;;;;;33.76;27.53;99617.53;4962429;28;1363;-74
2022/07/23 15:14:42;;;;;;;;;;;;;;;33.82;27.22;99617.34;4932173;29;1532;-78
2022/07/23 15:17:09;;;;;;;;;;;;;;;33.92;27.38;99619.06;4941276;28;965;-75
2022/07/23 15:19:35;;;;;;;;;;;;;;;33.99;27.06;99620.41;4971630;28;826;-74
2022/07/23 15:22:04;;;;;;;;;;;;;;;33.93;26.81;99612.03;4971218;28;1875;-71
2022/07/23 15:36:41;;;;;;;;;;;;;;;33.67;27.83;99613.13;4971025;28;624;-72
2022/07/23 15:39:08;;;;;;;;;;;;;;;33.54;27.85;99613.25;4970714;28;1225;-72
2022/07/23 15:41:34;;;;;;;;;;;;;;;33.21;28.66;99612.19;4971170;28;1942;-75
2022/07/23 15:44:01;;;;;;;;;;;;;;;32.86;28.85;99612.38;4970982;28;885;-71
2022/07/23 15:46:28;;;;;;;;;;;;;;;32.53;28.92;99608.34;4971132;28;823;-72
2022/07/23 15:48:55;;;;;;;;;;;;;;;32.23;30.25;99608.88;4970973;28;1341;-72
2022/07/23 15:51:21;;;;;;;;;;;;;;;32.00;30.38;99612.28;4970654;28;1280;-69
2022/07/23 15:53:48;;;;;;;;;;;;;;;31.85;30.53;99606.41;4970826;28;812;-71
2022/07/23 15:56:15;;;;;;;;;;;;;;;31.66;30.47;99612.31;4954523;28;1036;-71
2022/07/23 15:58:44;;;;;;;;;;;;;;;31.56;31.25;99614.09;4970829;28;885;-75